createdAt,value
2018-08-17T00:00:54.341Z,98266.64
2018-08-17T00:03:24.258Z,98267.58
2018-08-17T00:05:53.352Z,98268.20
2018-08-17T00:08:22.705Z,98269.95
2018-08-17T00:10:51.934Z,98270.86
2018-08-17T00:13:21.289Z,98270.59
2018-08-17T00:15:50.828Z,98272.12
2018-08-17T00:18:20.079Z,98271.32
2018-08-17T00:20:49.208Z,98267.12
2018-08-17T00:23:18.296Z,98266.36
2018-08-17T00:25:47.396Z,98269.94
2018-08-17T00:28:16.388Z,98267.16
2018-08-17T00:30:45.401Z,98263.13
2018-08-17T00:33:14.227Z,98260.59
2018-08-17T00:35:43.217Z,98263.89
2018-08-17T00:38:12.336Z,98269.17
2018-08-17T00:40:41.512Z,98267.33
2018-08-17T00:43:10.506Z,98267.84
2018-08-17T00:45:39.496Z,98268.54
2018-08-17T00:48:09.129Z,98263.19
2018-08-17T00:50:38.253Z,98266.24
2018-08-17T00:53:07.553Z,98269.02
2018-08-17T00:55:36.769Z,98261.30
2018-08-17T00:58:05.847Z,98265.67
2018-08-17T01:00:35.129Z,98265.53
2018-08-17T01:03:04.245Z,98252.86
2018-08-17T01:05:33.237Z,98254.70
2018-08-17T01:08:01.885Z,98254.52
2018-08-17T01:10:30.915Z,98251.91
2018-08-17T01:13:00.079Z,98251.59
2018-08-17T01:15:29.059Z,98253.26
2018-08-17T01:17:58.100Z,98259.86
2018-08-17T01:20:27.298Z,98263.77
2018-08-17T01:22:56.589Z,98260.80
2018-08-17T01:25:25.969Z,98264.05
2018-08-17T01:27:55.275Z,98260.58
2018-08-17T01:30:25.185Z,98269.38
2018-08-17T01:32:54.621Z,98266.01
2018-08-17T01:35:24.844Z,98267.51
2018-08-17T01:37:54.148Z,98265.41
2018-08-17T01:40:23.548Z,98268.61
2018-08-17T01:42:52.898Z,98266.88
2018-08-17T01:45:22.633Z,98268.67
2018-08-17T01:47:51.861Z,98271.84
2018-08-17T01:50:21.161Z,98279.94
2018-08-17T01:52:50.357Z,98278.66
2018-08-17T01:55:19.664Z,98277.03
2018-08-17T01:57:48.804Z,98275.73
2018-08-17T02:00:18.078Z,98278.69
2018-08-17T02:02:46.905Z,98275.00
2018-08-17T02:05:16.141Z,98268.98
2018-08-17T02:07:45.442Z,98272.67
2018-08-17T02:10:14.742Z,98271.31
2018-08-17T02:12:44.147Z,98266.86
2018-08-17T02:15:13.651Z,98267.61
2018-08-17T02:17:43.004Z,98268.73
2018-08-17T02:20:12.353Z,98272.41
2018-08-17T02:22:41.764Z,98276.38
2018-08-17T02:25:11.266Z,98277.33
2018-08-17T02:27:40.564Z,98281.02
2018-08-17T02:30:09.965Z,98284.10
2018-08-17T02:32:39.233Z,98281.77
2018-08-17T02:35:08.464Z,98281.42
2018-08-17T02:37:37.714Z,98281.42
2018-08-17T02:40:06.859Z,98281.66
2018-08-17T02:42:35.377Z,98281.48
2018-08-17T02:45:03.922Z,98280.39
2018-08-17T02:47:32.488Z,98275.58
2018-08-17T02:50:00.902Z,98276.97
2018-08-17T02:52:29.329Z,98278.77
2018-08-17T02:54:57.770Z,98276.47
2018-08-17T02:57:26.190Z,98275.62
2018-08-17T02:59:54.763Z,98273.67
2018-08-17T03:02:23.658Z,98279.98
2018-08-17T03:04:52.221Z,98277.00
2018-08-17T03:07:20.696Z,98276.02
2018-08-17T03:09:49.165Z,98283.52
2018-08-17T03:12:17.666Z,98283.17
2018-08-17T03:14:46.145Z,98290.23
2018-08-17T03:17:14.770Z,98293.44
2018-08-17T03:19:43.206Z,98296.94
2018-08-17T03:22:11.824Z,98293.22
2018-08-17T03:24:40.281Z,98295.24
2018-08-17T03:27:08.773Z,98298.27
2018-08-17T03:29:37.432Z,98302.64
2018-08-17T03:32:06.097Z,98296.25
2018-08-17T03:34:34.618Z,98295.39
2018-08-17T03:37:03.196Z,98294.20
2018-08-17T03:39:31.705Z,98300.66
2018-08-17T03:42:00.146Z,98300.95
2018-08-17T03:44:29.054Z,98306.37
2018-08-17T03:46:57.509Z,98315.48
2018-08-17T03:49:26.201Z,98316.52
2018-08-17T03:51:54.733Z,98317.53
2018-08-17T03:54:23.610Z,98318.24
2018-08-17T03:56:52.332Z,98318.11
2018-08-17T03:59:20.763Z,98323.55
2018-08-17T04:01:49.273Z,98326.09
2018-08-17T04:04:17.725Z,98333.38
2018-08-17T04:06:46.196Z,98325.79
2018-08-17T04:09:14.684Z,98331.05
2018-08-17T04:11:43.207Z,98332.45
2018-08-17T04:14:11.646Z,98339.53
2018-08-17T04:16:40.030Z,98351.55
2018-08-17T04:19:08.645Z,98347.80
2018-08-17T04:21:37.176Z,98346.81
2018-08-17T04:24:05.690Z,98344.62
2018-08-17T04:26:34.201Z,98347.37
2018-08-17T04:29:02.662Z,98346.24
2018-08-17T04:31:31.249Z,98345.90
2018-08-17T04:33:59.672Z,98346.58
2018-08-17T04:36:28.162Z,98346.25
2018-08-17T04:38:56.662Z,98347.61
2018-08-17T04:41:25.458Z,98343.19
2018-08-17T04:43:53.942Z,98350.77
2018-08-17T04:46:22.651Z,98351.29
2018-08-17T04:48:51.113Z,98362.73
2018-08-17T04:51:19.714Z,98367.45
2018-08-17T04:53:48.126Z,98361.00
2018-08-17T04:56:16.598Z,98365.00
2018-08-17T04:58:44.982Z,98361.27
2018-08-17T05:01:13.574Z,98366.34
2018-08-17T05:03:41.974Z,98362.74
2018-08-17T05:06:10.541Z,98364.94
2018-08-17T05:08:38.978Z,98361.17
2018-08-17T05:11:07.671Z,98368.27
2018-08-17T05:13:36.121Z,98374.02
2018-08-17T05:16:04.653Z,98371.47
2018-08-17T05:18:33.068Z,98384.48
2018-08-17T05:21:01.573Z,98390.84
2018-08-17T05:23:30.115Z,98388.28
2018-08-17T05:25:58.590Z,98395.20
2018-08-17T05:28:26.989Z,98397.57
2018-08-17T05:30:55.502Z,98399.91
2018-08-17T05:33:24.670Z,98401.22
2018-08-17T05:35:53.238Z,98401.03
2018-08-17T05:38:21.843Z,98399.30
2018-08-17T05:40:50.377Z,98400.13
2018-08-17T05:43:19.118Z,98404.81
2018-08-17T05:45:47.654Z,98392.91
2018-08-17T05:48:16.271Z,98403.53
2018-08-17T05:50:44.805Z,98399.92
2018-08-17T05:53:13.238Z,98410.48
2018-08-17T05:55:41.837Z,98407.31
2018-08-17T05:58:10.333Z,98397.88
2018-08-17T06:00:38.900Z,98400.56
2018-08-17T06:03:07.413Z,98405.52
2018-08-17T06:05:35.919Z,98411.88
2018-08-17T06:08:04.382Z,98412.83
2018-08-17T06:10:32.838Z,98417.66
2018-08-17T06:13:01.482Z,98418.03
2018-08-17T06:15:30.010Z,98428.78
2018-08-17T06:17:58.497Z,98418.34
2018-08-17T06:20:27.014Z,98423.13
2018-08-17T06:22:55.442Z,98425.11
2018-08-17T06:25:24.192Z,98426.80
2018-08-17T06:27:52.657Z,98435.20
2018-08-17T06:30:21.165Z,98433.46
2018-08-17T06:32:49.924Z,98435.22
2018-08-17T06:35:19.539Z,98440.48
2018-08-17T06:37:48.178Z,98442.91
2018-08-17T06:40:16.736Z,98442.13
2018-08-17T06:42:45.234Z,98445.38
2018-08-17T06:45:13.943Z,98440.72
2018-08-17T06:47:42.446Z,98446.08
2018-08-17T06:50:11.877Z,98444.88
2018-08-17T06:52:41.302Z,98444.47
2018-08-17T06:55:10.986Z,98444.71
2018-08-17T06:57:39.925Z,98436.78
2018-08-17T07:00:14.227Z,98445.01
2018-08-17T07:02:43.722Z,98447.22
2018-08-17T07:05:12.234Z,98444.58
2018-08-17T07:07:41.119Z,98447.25
2018-08-17T07:10:13.885Z,98451.02
2018-08-17T07:12:43.006Z,98452.55
2018-08-17T07:15:11.669Z,98451.39
2018-08-17T07:17:40.693Z,98457.94
2018-08-17T07:20:10.888Z,98458.30
2018-08-17T07:22:39.517Z,98459.69
2018-08-17T07:25:08.361Z,98452.80
2018-08-17T07:27:36.872Z,98456.39
2018-08-17T07:30:07.124Z,98463.66
2018-08-17T07:32:35.653Z,98461.77
2018-08-17T07:35:04.418Z,98463.13
2018-08-17T07:37:32.837Z,98455.22
2018-08-17T07:40:01.310Z,98464.04
2018-08-17T07:42:29.949Z,98456.38
2018-08-17T07:44:58.386Z,98462.67
2018-08-17T07:47:26.948Z,98463.12
2018-08-17T07:49:55.448Z,98470.08
2018-08-17T07:52:24.272Z,98471.72
2018-08-17T07:54:52.892Z,98460.89
2018-08-17T07:57:21.352Z,98463.99
2018-08-17T07:59:49.774Z,98465.66
2018-08-17T08:02:18.217Z,98467.95
2018-08-17T08:04:46.746Z,98468.39
2018-08-17T08:07:15.237Z,98472.67
2018-08-17T08:09:43.693Z,98471.36
2018-08-17T08:12:12.265Z,98474.27
2018-08-17T08:14:40.758Z,98480.78
2018-08-17T08:17:09.146Z,98478.42
2018-08-17T08:19:37.557Z,98479.30
2018-08-17T08:22:06.094Z,98481.98
2018-08-17T08:24:38.798Z,98484.73
2018-08-17T08:27:08.077Z,98487.05
2018-08-17T08:29:36.489Z,98487.54
2018-08-17T08:32:05.037Z,98497.19
2018-08-17T08:34:33.449Z,98497.33
2018-08-17T08:37:01.930Z,98490.13
2018-08-17T08:39:30.471Z,98490.03
2018-08-17T08:41:58.910Z,98493.83
2018-08-17T08:44:27.527Z,98494.73
2018-08-17T08:46:55.943Z,98490.19
2018-08-17T08:49:24.579Z,98493.61
2018-08-17T08:51:53.019Z,98497.94
2018-08-17T08:54:21.518Z,98491.22
2018-08-17T08:56:49.997Z,98491.18
2018-08-17T08:59:18.466Z,98493.21
2018-08-17T09:01:46.892Z,98493.77
2018-08-17T09:04:15.338Z,98498.90
2018-08-17T09:06:43.812Z,98493.02
2018-08-17T09:09:12.334Z,98490.11
2018-08-17T09:11:40.746Z,98495.24
2018-08-17T09:14:09.283Z,98493.35
2018-08-17T09:16:37.874Z,98495.42
2018-08-17T09:19:06.635Z,98493.78
2018-08-17T09:21:35.134Z,98499.08
2018-08-17T09:24:03.646Z,98493.43
2018-08-17T09:26:32.145Z,98482.31
2018-08-17T09:29:00.550Z,98489.37
2018-08-17T09:31:29.022Z,98481.90
2018-08-17T09:33:57.552Z,98487.17
2018-08-17T09:36:26.005Z,98482.23
2018-08-17T09:38:54.505Z,98476.59
2018-08-17T09:41:22.995Z,98484.44
2018-08-17T09:43:51.449Z,98478.89
2018-08-17T09:46:19.919Z,98481.53
2018-08-17T09:48:48.505Z,98480.12
2018-08-17T09:51:17.007Z,98485.20
2018-08-17T09:53:45.458Z,98482.25
2018-08-17T09:56:14.390Z,98475.05
2018-08-17T09:58:42.841Z,98474.33
2018-08-17T10:01:16.753Z,98474.12
2018-08-17T10:03:49.561Z,98471.38
2018-08-17T10:06:23.502Z,98473.00
2018-08-17T10:08:57.261Z,98467.64
2018-08-17T10:11:26.790Z,98459.33
2018-08-17T10:13:55.238Z,98461.28
2018-08-17T10:16:24.000Z,98460.92
2018-08-17T10:18:52.397Z,98462.59
2018-08-17T10:21:21.158Z,98462.78
2018-08-17T10:23:49.512Z,98456.00
2018-08-17T10:26:18.116Z,98465.11
2018-08-17T10:28:46.681Z,98461.05
2018-08-17T10:31:18.613Z,98466.53
2018-08-17T10:33:48.484Z,98460.72
2018-08-17T10:36:16.994Z,98455.36
2018-08-17T10:38:45.449Z,98449.66
2018-08-17T10:41:13.970Z,98446.76
2018-08-17T10:43:42.409Z,98445.83
2018-08-17T10:46:10.911Z,98453.23
2018-08-17T10:48:39.360Z,98452.38
2018-08-17T10:51:07.880Z,98447.98
2018-08-17T10:53:40.882Z,98444.64
2018-08-17T10:56:09.354Z,98435.61
2018-08-17T10:58:41.449Z,98440.83
2018-08-17T11:01:09.901Z,98426.89
2018-08-17T11:03:38.378Z,98427.96
2018-08-17T11:06:06.889Z,98429.13
2018-08-17T11:08:35.275Z,98419.18
2018-08-17T11:11:03.819Z,98420.80
2018-08-17T11:13:32.271Z,98416.23
2018-08-17T11:16:00.773Z,98411.42
2018-08-17T11:18:29.246Z,98417.93
2018-08-17T11:20:57.777Z,98415.41
2018-08-17T11:23:26.286Z,98413.77
2018-08-17T11:25:54.714Z,98412.83
2018-08-17T11:28:23.505Z,98417.89
2018-08-17T11:30:51.994Z,98415.74
2018-08-17T11:33:27.253Z,98413.38
2018-08-17T11:35:56.119Z,98414.16
2018-08-17T11:38:25.133Z,98413.09
2018-08-17T11:40:53.621Z,98407.63
2018-08-17T11:43:22.274Z,98410.52
2018-08-17T11:45:50.838Z,98421.13
2018-08-17T11:48:26.545Z,98413.75
2018-08-17T11:50:55.910Z,98411.84
2018-08-17T11:53:25.688Z,98408.66
2018-08-17T11:55:54.307Z,98414.17
2018-08-17T11:58:22.861Z,98414.98
2018-08-17T12:00:51.369Z,98417.05
2018-08-17T12:03:19.802Z,98409.41
2018-08-17T12:05:48.252Z,98409.59
2018-08-17T12:08:16.800Z,98397.88
2018-08-17T12:10:50.424Z,98400.53
2018-08-17T12:13:19.093Z,98409.27
2018-08-17T12:15:53.467Z,98413.84
2018-08-17T12:18:21.984Z,98409.58
2018-08-17T12:20:50.509Z,98412.47
2018-08-17T12:23:18.984Z,98419.16
2018-08-17T12:25:55.140Z,98418.20
2018-08-17T12:28:24.621Z,98424.50
2018-08-17T12:30:53.126Z,98422.81
2018-08-17T12:33:21.630Z,98432.17
2018-08-17T12:35:50.058Z,98446.73
2018-08-17T12:38:19.573Z,98433.66
2018-08-17T12:40:49.270Z,98433.90
2018-08-17T12:43:18.894Z,98431.17
2018-08-17T12:45:47.691Z,98446.15
2018-08-17T12:48:17.014Z,98447.26
2018-08-17T12:50:45.870Z,98448.19
2018-08-17T12:53:14.674Z,98446.35
2018-08-17T12:55:43.641Z,98441.16
2018-08-17T12:58:12.651Z,98446.96
2018-08-17T13:00:41.162Z,98452.25
2018-08-17T13:03:09.637Z,98463.51
2018-08-17T13:05:38.278Z,98464.62
2018-08-17T13:08:07.599Z,98467.52
2018-08-17T13:10:36.226Z,98480.38
2018-08-17T13:13:09.721Z,98479.47
2018-08-17T13:15:39.313Z,98490.22
2018-08-17T13:18:15.145Z,98466.91
2018-08-17T13:20:44.130Z,98463.59
2018-08-17T13:23:12.915Z,98474.12
2018-08-17T13:25:41.921Z,98472.75
2018-08-17T13:28:11.845Z,98478.58
2018-08-17T13:30:40.403Z,98491.56
2018-08-17T13:33:08.985Z,98493.08
2018-08-17T13:35:37.490Z,98492.19
2018-08-17T13:38:06.296Z,98489.79
2018-08-17T13:40:34.916Z,98497.53
2018-08-17T13:43:03.511Z,98513.65
2018-08-17T13:45:31.921Z,98522.16
2018-08-17T13:48:00.758Z,98512.91
2018-08-17T13:50:29.151Z,98517.08
2018-08-17T13:52:57.601Z,98533.47
2018-08-17T13:55:26.513Z,98525.41
2018-08-17T13:57:55.129Z,98528.88
2018-08-17T14:00:24.115Z,98531.39
2018-08-17T14:02:52.530Z,98533.14
2018-08-17T14:05:21.053Z,98530.15
2018-08-17T14:07:49.585Z,98531.53
2018-08-17T14:10:18.109Z,98521.63
2018-08-17T14:12:46.573Z,98527.73
2018-08-17T14:15:15.093Z,98521.91
2018-08-17T14:17:43.514Z,98525.66
2018-08-17T14:20:14.491Z,98531.05
2018-08-17T14:22:43.536Z,98533.31
2018-08-17T14:25:12.551Z,98539.74
2018-08-17T14:27:41.065Z,98544.56
2018-08-17T14:30:12.484Z,98550.78
2018-08-17T14:32:41.250Z,98552.18
2018-08-17T14:35:09.826Z,98563.84
2018-08-17T14:37:38.224Z,98567.48
2018-08-17T14:40:07.322Z,98575.90
2018-08-17T14:42:35.794Z,98575.38
2018-08-17T14:45:05.089Z,98582.00
2018-08-17T14:47:33.621Z,98581.41
2018-08-17T14:50:02.165Z,98577.66
2018-08-17T14:52:30.613Z,98569.54
2018-08-17T14:54:59.041Z,98562.41
2018-08-17T14:57:27.591Z,98566.78
2018-08-17T14:59:56.090Z,98569.94
2018-08-17T15:02:25.130Z,98575.38
2018-08-17T15:04:53.605Z,98585.23
2018-08-17T15:07:22.077Z,98588.12
2018-08-17T15:09:50.608Z,98581.88
2018-08-17T15:12:19.146Z,98581.34
2018-08-17T15:14:47.610Z,98574.47
2018-08-17T15:17:16.130Z,98581.25
2018-08-17T15:19:44.563Z,98583.20
2018-08-17T15:22:13.186Z,98577.23
2018-08-17T15:24:41.636Z,98578.70
2018-08-17T15:27:10.425Z,98582.48
2018-08-17T15:29:38.929Z,98578.78
2018-08-17T15:32:07.808Z,98571.83
2018-08-17T15:34:36.301Z,98571.69
2018-08-17T15:37:04.946Z,98575.22
2018-08-17T15:39:33.469Z,98575.95
2018-08-17T15:42:02.180Z,98579.30
2018-08-17T15:44:30.681Z,98567.14
2018-08-17T15:46:59.789Z,98568.91
2018-08-17T15:49:34.718Z,98571.80
2018-08-17T15:52:04.555Z,98565.31
2018-08-17T15:54:33.063Z,98561.48
2018-08-17T15:57:01.944Z,98570.95
2018-08-17T15:59:30.562Z,98563.02
2018-08-17T16:01:59.135Z,98562.64
2018-08-17T16:04:27.810Z,98566.49
2018-08-17T16:06:56.446Z,98576.28
2018-08-17T16:09:25.475Z,98571.41
2018-08-17T16:11:54.034Z,98565.36
2018-08-17T16:14:22.838Z,98574.55
2018-08-17T16:16:51.481Z,98575.34
2018-08-17T16:19:20.441Z,98572.38
2018-08-17T16:21:49.345Z,98578.02
2018-08-17T16:24:17.909Z,98574.41
2018-08-17T16:26:46.365Z,98569.70
2018-08-17T16:29:14.994Z,98562.23
2018-08-17T16:31:43.529Z,98575.93
2018-08-17T16:34:12.121Z,98576.77
2018-08-17T16:36:42.165Z,98573.88
2018-08-17T16:39:16.309Z,98580.58
2018-08-17T16:41:44.941Z,98577.16
2018-08-17T16:44:14.681Z,98578.69
2018-08-17T16:46:44.131Z,98578.59
2018-08-17T16:49:12.765Z,98581.67
2018-08-17T16:51:41.257Z,98583.61
2018-08-17T16:54:09.858Z,98584.59
2018-08-17T16:56:38.290Z,98583.95
2018-08-17T16:59:07.306Z,98583.65
2018-08-17T17:01:35.729Z,98588.00
2018-08-17T17:04:04.285Z,98586.66
2018-08-17T17:06:33.076Z,98595.03
2018-08-17T17:09:04.733Z,98597.03
2018-08-17T17:11:33.442Z,98591.91
2018-08-17T17:14:01.967Z,98597.80
2018-08-17T17:16:36.741Z,98604.42
2018-08-17T17:19:06.859Z,98601.66
2018-08-17T17:21:35.377Z,98609.75
2018-08-17T17:24:04.038Z,98609.91
2018-08-17T17:26:32.476Z,98610.11
2018-08-17T17:29:01.062Z,98611.98
2018-08-17T17:31:29.658Z,98610.97
2018-08-17T17:33:58.281Z,98610.06
2018-08-17T17:36:26.697Z,98615.66
2018-08-17T17:38:55.187Z,98615.45
2018-08-17T17:41:24.403Z,98614.69
2018-08-17T17:43:52.883Z,98616.48
2018-08-17T17:46:21.443Z,98619.59
2018-08-17T17:48:51.112Z,98629.23
2018-08-17T17:51:19.538Z,98630.58
2018-08-17T17:53:48.075Z,98631.33
2018-08-17T17:56:16.641Z,98635.73
2018-08-17T17:58:45.110Z,98635.73
2018-08-17T18:01:13.579Z,98633.30
2018-08-17T18:03:45.533Z,98636.00
2018-08-17T18:06:14.009Z,98634.21
2018-08-17T18:08:42.565Z,98640.30
2018-08-17T18:11:11.106Z,98644.36
2018-08-17T18:13:39.586Z,98642.65
2018-08-17T18:16:08.058Z,98656.75
2018-08-17T18:18:36.561Z,98663.59
2018-08-17T18:21:05.106Z,98660.80
2018-08-17T18:23:33.517Z,98665.91
2018-08-17T18:26:02.005Z,98670.47
2018-08-17T18:28:30.620Z,98684.08
2018-08-17T18:30:59.150Z,98684.77
2018-08-17T18:33:27.565Z,98684.81
2018-08-17T18:35:55.988Z,98689.99
2018-08-17T18:38:25.578Z,98687.80
2018-08-17T18:40:54.181Z,98685.92
2018-08-17T18:43:22.680Z,98687.59
2018-08-17T18:45:51.242Z,98695.38
2018-08-17T18:48:19.746Z,98705.03
2018-08-17T18:50:48.271Z,98706.95
2018-08-17T18:53:16.821Z,98706.91
2018-08-17T18:55:45.453Z,98707.66
2018-08-17T18:58:13.993Z,98702.70
2018-08-17T19:00:42.446Z,98709.73
2018-08-17T19:03:11.089Z,98709.16
2018-08-17T19:05:39.522Z,98716.06
2018-08-17T19:08:07.954Z,98713.11
2018-08-17T19:10:36.578Z,98715.73
2018-08-17T19:13:05.305Z,98718.42
2018-08-17T19:15:40.322Z,98721.23
2018-08-17T19:18:08.694Z,98722.55
2018-08-17T19:20:37.250Z,98729.66
2018-08-17T19:23:05.893Z,98729.95
2018-08-17T19:25:39.442Z,98730.20
2018-08-17T19:28:07.946Z,98744.20
2018-08-17T19:30:36.530Z,98740.49
2018-08-17T19:33:08.584Z,98742.47
2018-08-17T19:35:37.101Z,98746.45
2018-08-17T19:38:05.706Z,98748.04
2018-08-17T19:40:34.145Z,98750.95
2018-08-17T19:43:02.673Z,98749.31
2018-08-17T19:45:31.205Z,98749.08
2018-08-17T19:47:59.711Z,98753.50
2018-08-17T19:50:28.559Z,98757.73
2018-08-17T19:52:56.977Z,98757.89
2018-08-17T19:55:25.978Z,98759.81
2018-08-17T19:57:54.398Z,98759.04
2018-08-17T20:00:23.278Z,98763.06
2018-08-17T20:02:51.770Z,98760.74
2018-08-17T20:05:20.274Z,98758.11
2018-08-17T20:07:48.933Z,98761.20
2018-08-17T20:10:17.343Z,98763.89
2018-08-17T20:12:46.131Z,98759.67
2018-08-17T20:15:14.621Z,98758.46
2018-08-17T20:17:50.742Z,98752.38
2018-08-17T20:20:19.653Z,98765.29
2018-08-17T20:22:48.230Z,98764.06
2018-08-17T20:25:17.689Z,98766.48
2018-08-17T20:27:47.254Z,98779.48
2018-08-17T20:30:19.814Z,98783.27
2018-08-17T20:32:48.241Z,98784.41
2018-08-17T20:35:16.908Z,98785.64
2018-08-17T20:37:50.881Z,98790.55
2018-08-17T20:40:19.619Z,98796.42
2018-08-17T20:42:48.512Z,98800.05
2018-08-17T20:45:17.077Z,98810.84
2018-08-17T20:47:45.730Z,98812.63
2018-08-17T20:50:18.715Z,98821.83
2018-08-17T20:52:56.358Z,98822.95
2018-08-17T20:55:25.445Z,98832.53
2018-08-17T20:57:55.014Z,98827.83
2018-08-17T21:00:25.462Z,98825.01
2018-08-17T21:02:54.314Z,98827.45
2018-08-17T21:05:23.417Z,98830.34
2018-08-17T21:07:52.125Z,98831.88
2018-08-17T21:10:20.781Z,98830.58
2018-08-17T21:12:49.702Z,98828.88
2018-08-17T21:15:18.782Z,98837.23
2018-08-17T21:17:47.607Z,98842.53
2018-08-17T21:20:16.246Z,98845.92
2018-08-17T21:22:44.732Z,98845.25
2018-08-17T21:25:14.033Z,98845.81
2018-08-17T21:27:42.497Z,98842.11
2018-08-17T21:30:11.523Z,98833.15
2018-08-17T21:32:40.050Z,98837.55
2018-08-17T21:35:08.962Z,98843.36
2018-08-17T21:37:38.825Z,98835.58
2018-08-17T21:40:18.573Z,98837.03
2018-08-17T21:42:48.077Z,98832.34
2018-08-17T21:45:16.585Z,98831.69
2018-08-17T21:47:45.111Z,98837.14
2018-08-17T21:50:14.564Z,98827.86
2018-08-17T21:52:43.750Z,98836.56
2018-08-17T21:55:12.519Z,98835.58
2018-08-17T21:57:41.223Z,98835.99
2018-08-17T22:00:30.506Z,98837.75
2018-08-17T22:02:59.281Z,98844.41
2018-08-17T22:05:34.285Z,98836.66
2018-08-17T22:08:02.894Z,98845.06
2018-08-17T22:10:31.802Z,98847.73
2018-08-17T22:13:00.403Z,98849.47
2018-08-17T22:15:30.533Z,98845.40
2018-08-17T22:17:58.970Z,98853.59
2018-08-17T22:20:27.513Z,98853.08
2018-08-17T22:22:56.119Z,98857.72
2018-08-17T22:25:24.872Z,98860.07
2018-08-17T22:27:53.433Z,98856.70
2018-08-17T22:30:23.881Z,98859.24
2018-08-17T22:32:52.305Z,98868.59
2018-08-17T22:35:20.917Z,98865.40
2018-08-17T22:37:49.409Z,98858.77
2018-08-17T22:40:17.894Z,98862.12
2018-08-17T22:42:48.316Z,98856.38
2018-08-17T22:45:17.105Z,98860.81
2018-08-17T22:47:45.869Z,98852.73
2018-08-17T22:50:15.160Z,98856.80
2018-08-17T22:52:43.819Z,98860.24
2018-08-17T22:55:12.270Z,98871.47
2018-08-17T22:57:41.722Z,98878.94
2018-08-17T23:00:42.898Z,98885.88
2018-08-17T23:03:11.420Z,98888.83
2018-08-17T23:05:39.853Z,98887.34
2018-08-17T23:08:08.521Z,98886.34
2018-08-17T23:10:36.950Z,98893.64
2018-08-17T23:13:05.481Z,98892.64
2018-08-17T23:15:33.881Z,98892.28
2018-08-17T23:18:02.545Z,98893.83
2018-08-17T23:20:33.725Z,98895.02
2018-08-17T23:23:03.016Z,98900.44
2018-08-17T23:25:31.880Z,98896.39
2018-08-17T23:28:01.549Z,98896.04
2018-08-17T23:30:31.985Z,98897.07
2018-08-17T23:33:01.013Z,98898.09
2018-08-17T23:35:29.632Z,98904.19
2018-08-17T23:37:58.233Z,98904.52
2018-08-17T23:40:26.762Z,98903.19
2018-08-17T23:42:55.239Z,98897.92
2018-08-17T23:45:24.586Z,98899.11
2018-08-17T23:47:53.033Z,98906.73
2018-08-17T23:50:21.592Z,98911.16
2018-08-17T23:52:50.009Z,98909.61
2018-08-17T23:55:19.317Z,98905.88
2018-08-17T23:57:47.806Z,98910.78
